sensor_id;sensor_type;location;lat;lon;timestamp;temperature;humidity
13794;DHT22;31160;49.500;7.772;2023-07-13T00:00:26;16.30;99.90
13794;DHT22;31160;49.500;7.772;2023-07-13T00:02:53;16.30;99.90
13794;DHT22;31160;49.500;7.772;2023-07-13T00:05:22;16.20;99.90
13794;DHT22;31160;49.500;7.772;2023-07-13T00:07:50;16.20;99.90
13794;DHT22;31160;49.500;7.772;2023-07-13T00:10:17;16.20;99.90
13794;DHT22;31160;49.500;7.772;2023-07-13T00:12:44;16.10;99.90
13794;DHT22;31160;49.500;7.772;2023-07-13T00:15:20;16.00;99.90
13794;DHT22;31160;49.500;7.772;2023-07-13T00:17:54;16.00;99.90
13794;DHT22;31160;49.500;7.772;2023-07-13T00:20:23;16.00;99.90
13794;DHT22;31160;49.500;7.772;2023-07-13T00:22:52;16.00;99.90
13794;DHT22;31160;49.500;7.772;2023-07-13T00:25:21;15.90;99.90
13794;DHT22;31160;49.500;7.772;2023-07-13T00:27:48;15.80;99.90
13794;DHT22;31160;49.500;7.772;2023-07-13T00:30:15;15.70;99.90
13794;DHT22;31160;49.500;7.772;2023-07-13T00:32:42;15.70;99.90
13794;DHT22;31160;49.500;7.772;2023-07-13T00:35:09;15.60;99.90
13794;DHT22;31160;49.500;7.772;2023-07-13T00:37:36;15.50;99.90
13794;DHT22;31160;49.500;7.772;2023-07-13T00:40:04;15.40;99.90
13794;DHT22;31160;49.500;7.772;2023-07-13T00:42:32;15.40;99.90
13794;DHT22;31160;49.500;7.772;2023-07-13T00:47:51;15.30;99.90
13794;DHT22;31160;49.500;7.772;2023-07-13T00:50:19;15.20;99.90
13794;DHT22;31160;49.500;7.772;2023-07-13T00:52:50;15.30;99.90
13794;DHT22;31160;49.500;7.772;2023-07-13T00:55:18;15.30;99.90
13794;DHT22;31160;49.500;7.772;2023-07-13T00:57:48;15.30;99.90
13794;DHT22;31160;49.500;7.772;2023-07-13T01:00:15;15.30;99.90
13794;DHT22;31160;49.500;7.772;2023-07-13T01:02:45;15.20;99.90
13794;DHT22;31160;49.500;7.772;2023-07-13T01:05:19;15.20;99.90
13794;DHT22;31160;49.500;7.772;2023-07-13T01:07:48;15.30;99.90
13794;DHT22;31160;49.500;7.772;2023-07-13T01:10:16;15.20;99.90
13794;DHT22;31160;49.500;7.772;2023-07-13T01:12:43;15.10;99.90
13794;DHT22;31160;49.500;7.772;2023-07-13T01:15:41;15.20;99.90
13794;DHT22;31160;49.500;7.772;2023-07-13T01:18:32;15.10;99.90
13794;DHT22;31160;49.500;7.772;2023-07-13T01:21:01;15.00;99.90
13794;DHT22;31160;49.500;7.772;2023-07-13T01:23:30;14.90;99.90
13794;DHT22;31160;49.500;7.772;2023-07-13T01:25:57;14.80;99.90
13794;DHT22;31160;49.500;7.772;2023-07-13T01:28:25;14.70;99.90
13794;DHT22;31160;49.500;7.772;2023-07-13T01:30:55;14.70;99.90
13794;DHT22;31160;49.500;7.772;2023-07-13T01:33:23;14.70;99.90
13794;DHT22;31160;49.500;7.772;2023-07-13T01:35:50;14.70;99.90
13794;DHT22;31160;49.500;7.772;2023-07-13T01:38:21;14.80;99.90
13794;DHT22;31160;49.500;7.772;2023-07-13T01:40:48;14.70;99.90
13794;DHT22;31160;49.500;7.772;2023-07-13T01:43:15;14.70;99.90
13794;DHT22;31160;49.500;7.772;2023-07-13T01:45:41;14.70;99.90
13794;DHT22;31160;49.500;7.772;2023-07-13T01:48:12;14.70;99.90
13794;DHT22;31160;49.500;7.772;2023-07-13T01:50:40;14.70;99.90
13794;DHT22;31160;49.500;7.772;2023-07-13T01:53:07;14.70;99.90
13794;DHT22;31160;49.500;7.772;2023-07-13T01:55:34;14.60;99.90
13794;DHT22;31160;49.500;7.772;2023-07-13T01:58:03;14.50;99.90
13794;DHT22;31160;49.500;7.772;2023-07-13T02:00:30;14.60;99.90
13794;DHT22;31160;49.500;7.772;2023-07-13T02:02:57;14.50;99.90
13794;DHT22;31160;49.500;7.772;2023-07-13T02:05:24;14.50;99.90
13794;DHT22;31160;49.500;7.772;2023-07-13T02:07:51;14.50;99.90
13794;DHT22;31160;49.500;7.772;2023-07-13T02:10:19;14.50;99.90
13794;DHT22;31160;49.500;7.772;2023-07-13T02:12:48;14.40;99.90
13794;DHT22;31160;49.500;7.772;2023-07-13T02:15:16;14.40;99.90
13794;DHT22;31160;49.500;7.772;2023-07-13T02:17:43;14.40;99.90
13794;DHT22;31160;49.500;7.772;2023-07-13T02:20:10;14.20;99.90
13794;DHT22;31160;49.500;7.772;2023-07-13T02:22:37;14.20;99.90
13794;DHT22;31160;49.500;7.772;2023-07-13T02:25:04;14.20;99.90
13794;DHT22;31160;49.500;7.772;2023-07-13T02:27:31;14.30;99.90
13794;DHT22;31160;49.500;7.772;2023-07-13T02:29:58;14.30;99.90
13794;DHT22;31160;49.500;7.772;2023-07-13T02:32:25;14.30;99.90
13794;DHT22;31160;49.500;7.772;2023-07-13T02:34:53;14.30;99.90
13794;DHT22;31160;49.500;7.772;2023-07-13T02:37:20;14.40;99.90
13794;DHT22;31160;49.500;7.772;2023-07-13T02:39:48;14.40;99.90
13794;DHT22;31160;49.500;7.772;2023-07-13T02:42:15;14.40;99.90
13794;DHT22;31160;49.500;7.772;2023-07-13T02:44:43;14.50;99.90
13794;DHT22;31160;49.500;7.772;2023-07-13T02:47:10;14.60;99.90
13794;DHT22;31160;49.500;7.772;2023-07-13T02:49:37;14.70;99.90
13794;DHT22;31160;49.500;7.772;2023-07-13T02:52:04;14.70;99.90
13794;DHT22;31160;49.500;7.772;2023-07-13T02:54:31;14.70;99.90
13794;DHT22;31160;49.500;7.772;2023-07-13T02:56:58;14.70;99.90
13794;DHT22;31160;49.500;7.772;2023-07-13T02:59:25;14.70;99.90
13794;DHT22;31160;49.500;7.772;2023-07-13T03:01:52;14.60;99.90
13794;DHT22;31160;49.500;7.772;2023-07-13T03:04:19;14.60;99.90
13794;DHT22;31160;49.500;7.772;2023-07-13T03:06:46;14.70;99.90
13794;DHT22;31160;49.500;7.772;2023-07-13T03:09:14;14.80;99.90
13794;DHT22;31160;49.500;7.772;2023-07-13T03:11:46;14.80;99.90
13794;DHT22;31160;49.500;7.772;2023-07-13T03:14:24;14.80;99.90
13794;DHT22;31160;49.500;7.772;2023-07-13T03:16:51;14.80;99.90
13794;DHT22;31160;49.500;7.772;2023-07-13T03:19:21;14.70;99.90
13794;DHT22;31160;49.500;7.772;2023-07-13T03:21:50;14.70;99.90
13794;DHT22;31160;49.500;7.772;2023-07-13T03:24:16;14.80;99.90
13794;DHT22;31160;49.500;7.772;2023-07-13T03:26:43;14.70;99.90
13794;DHT22;31160;49.500;7.772;2023-07-13T03:29:10;14.60;99.90
13794;DHT22;31160;49.500;7.772;2023-07-13T03:31:37;14.60;99.90
13794;DHT22;31160;49.500;7.772;2023-07-13T03:34:05;14.60;99.90
13794;DHT22;31160;49.500;7.772;2023-07-13T03:36:32;14.60;99.90
13794;DHT22;31160;49.500;7.772;2023-07-13T03:39:03;14.60;99.90
13794;DHT22;31160;49.500;7.772;2023-07-13T03:41:40;14.60;99.90
13794;DHT22;31160;49.500;7.772;2023-07-13T03:44:07;14.50;99.90
13794;DHT22;31160;49.500;7.772;2023-07-13T03:46:33;14.60;99.90
13794;DHT22;31160;49.500;7.772;2023-07-13T03:49:01;14.60;99.90
13794;DHT22;31160;49.500;7.772;2023-07-13T03:51:28;14.50;99.90
13794;DHT22;31160;49.500;7.772;2023-07-13T03:53:55;14.40;99.90
13794;DHT22;31160;49.500;7.772;2023-07-13T03:56:22;14.50;99.90
13794;DHT22;31160;49.500;7.772;2023-07-13T03:58:50;14.50;99.90
13794;DHT22;31160;49.500;7.772;2023-07-13T04:01:20;14.50;99.90
13794;DHT22;31160;49.500;7.772;2023-07-13T04:03:48;14.50;99.90
13794;DHT22;31160;49.500;7.772;2023-07-13T04:06:23;14.60;99.90
13794;DHT22;31160;49.500;7.772;2023-07-13T04:08:56;14.70;99.90
13794;DHT22;31160;49.500;7.772;2023-07-13T04:11:26;14.80;99.90
13794;DHT22;31160;49.500;7.772;2023-07-13T04:13:53;14.90;99.90
13794;DHT22;31160;49.500;7.772;2023-07-13T04:16:21;14.90;99.90
13794;DHT22;31160;49.500;7.772;2023-07-13T04:18:49;15.00;99.90
13794;DHT22;31160;49.500;7.772;2023-07-13T04:21:16;14.90;99.90
13794;DHT22;31160;49.500;7.772;2023-07-13T04:23:43;15.00;99.90
13794;DHT22;31160;49.500;7.772;2023-07-13T04:26:10;15.00;99.90
13794;DHT22;31160;49.500;7.772;2023-07-13T04:28:37;14.80;99.90
13794;DHT22;31160;49.500;7.772;2023-07-13T04:31:04;14.70;99.90
13794;DHT22;31160;49.500;7.772;2023-07-13T04:33:31;14.70;99.90
13794;DHT22;31160;49.500;7.772;2023-07-13T04:35:58;14.80;99.90
13794;DHT22;31160;49.500;7.772;2023-07-13T04:38:28;14.90;99.90
13794;DHT22;31160;49.500;7.772;2023-07-13T04:40:56;15.00;99.90
13794;DHT22;31160;49.500;7.772;2023-07-13T04:43:24;15.10;99.90
13794;DHT22;31160;49.500;7.772;2023-07-13T04:45:51;15.10;99.90
13794;DHT22;31160;49.500;7.772;2023-07-13T04:48:18;15.10;99.90
13794;DHT22;31160;49.500;7.772;2023-07-13T04:50:45;15.10;99.90
13794;DHT22;31160;49.500;7.772;2023-07-13T04:53:12;15.20;99.90
13794;DHT22;31160;49.500;7.772;2023-07-13T04:55:39;15.20;99.90
13794;DHT22;31160;49.500;7.772;2023-07-13T04:58:07;15.20;99.90
13794;DHT22;31160;49.500;7.772;2023-07-13T05:00:34;15.40;99.90
13794;DHT22;31160;49.500;7.772;2023-07-13T05:03:00;15.40;99.90
13794;DHT22;31160;49.500;7.772;2023-07-13T05:05:27;15.50;99.90
13794;DHT22;31160;49.500;7.772;2023-07-13T05:07:54;15.50;99.90
13794;DHT22;31160;49.500;7.772;2023-07-13T05:10:22;15.70;99.90
13794;DHT22;31160;49.500;7.772;2023-07-13T05:12:49;15.70;99.90
13794;DHT22;31160;49.500;7.772;2023-07-13T05:15:17;15.80;99.90
13794;DHT22;31160;49.500;7.772;2023-07-13T05:17:48;16.00;99.90
13794;DHT22;31160;49.500;7.772;2023-07-13T05:20:16;16.50;99.90
13794;DHT22;31160;49.500;7.772;2023-07-13T05:22:43;19.10;99.90
13794;DHT22;31160;49.500;7.772;2023-07-13T05:25:10;22.10;99.70
13794;DHT22;31160;49.500;7.772;2023-07-13T05:27:37;24.50;95.60
13794;DHT22;31160;49.500;7.772;2023-07-13T05:30:04;26.10;92.70
13794;DHT22;31160;49.500;7.772;2023-07-13T05:32:31;26.40;91.20
13794;DHT22;31160;49.500;7.772;2023-07-13T05:34:57;27.30;89.70
13794;DHT22;31160;49.500;7.772;2023-07-13T05:37:24;26.50;89.30
13794;DHT22;31160;49.500;7.772;2023-07-13T05:39:51;24.80;90.70
13794;DHT22;31160;49.500;7.772;2023-07-13T05:42:17;23.40;92.90
13794;DHT22;31160;49.500;7.772;2023-07-13T05:44:45;22.70;94.40
13794;DHT22;31160;49.500;7.772;2023-07-13T05:47:11;24.00;93.60
13794;DHT22;31160;49.500;7.772;2023-07-13T05:49:41;25.60;91.70
13794;DHT22;31160;49.500;7.772;2023-07-13T05:52:08;26.40;90.00
13794;DHT22;31160;49.500;7.772;2023-07-13T05:54:35;26.80;88.40
13794;DHT22;31160;49.500;7.772;2023-07-13T05:57:02;27.60;86.80
13794;DHT22;31160;49.500;7.772;2023-07-13T05:59:29;27.70;85.50
13794;DHT22;31160;49.500;7.772;2023-07-13T06:01:56;26.60;87.10
13794;DHT22;31160;49.500;7.772;2023-07-13T06:04:23;27.20;86.70
13794;DHT22;31160;49.500;7.772;2023-07-13T06:06:49;26.40;86.90
13794;DHT22;31160;49.500;7.772;2023-07-13T06:09:16;25.40;88.50
13794;DHT22;31160;49.500;7.772;2023-07-13T06:11:43;27.10;87.30
13794;DHT22;31160;49.500;7.772;2023-07-13T06:14:10;27.60;85.40
13794;DHT22;31160;49.500;7.772;2023-07-13T06:16:36;26.80;85.60
13794;DHT22;31160;49.500;7.772;2023-07-13T06:19:03;25.40;88.40
13794;DHT22;31160;49.500;7.772;2023-07-13T06:21:30;23.70;91.30
13794;DHT22;31160;49.500;7.772;2023-07-13T06:23:57;22.30;92.80
13794;DHT22;31160;49.500;7.772;2023-07-13T06:26:23;21.90;93.30
13794;DHT22;31160;49.500;7.772;2023-07-13T06:28:50;21.40;94.40
13794;DHT22;31160;49.500;7.772;2023-07-13T06:31:17;21.00;95.30
13794;DHT22;31160;49.500;7.772;2023-07-13T06:33:44;21.30;95.80
13794;DHT22;31160;49.500;7.772;2023-07-13T06:36:11;21.10;95.80
13794;DHT22;31160;49.500;7.772;2023-07-13T06:38:38;21.20;95.50
13794;DHT22;31160;49.500;7.772;2023-07-13T06:41:06;21.80;94.80
13794;DHT22;31160;49.500;7.772;2023-07-13T06:43:34;21.80;94.50
13794;DHT22;31160;49.500;7.772;2023-07-13T06:46:01;21.70;94.10
13794;DHT22;31160;49.500;7.772;2023-07-13T06:48:28;22.00;94.60
13794;DHT22;31160;49.500;7.772;2023-07-13T06:50:54;22.10;93.80
13794;DHT22;31160;49.500;7.772;2023-07-13T06:53:22;22.20;93.30
13794;DHT22;31160;49.500;7.772;2023-07-13T06:55:49;22.20;95.00
13794;DHT22;31160;49.500;7.772;2023-07-13T06:58:18;22.30;94.30
13794;DHT22;31160;49.500;7.772;2023-07-13T07:00:46;22.60;94.20
13794;DHT22;31160;49.500;7.772;2023-07-13T07:03:16;22.70;92.60
13794;DHT22;31160;49.500;7.772;2023-07-13T07:05:43;22.90;91.50
13794;DHT22;31160;49.500;7.772;2023-07-13T07:08:10;23.00;91.70
13794;DHT22;31160;49.500;7.772;2023-07-13T07:10:36;23.30;91.40
13794;DHT22;31160;49.500;7.772;2023-07-13T07:13:03;23.20;90.60
13794;DHT22;31160;49.500;7.772;2023-07-13T07:15:30;23.00;91.20
13794;DHT22;31160;49.500;7.772;2023-07-13T07:17:57;23.10;90.60
13794;DHT22;31160;49.500;7.772;2023-07-13T07:20:24;23.20;89.00
13794;DHT22;31160;49.500;7.772;2023-07-13T07:22:51;23.30;89.50
13794;DHT22;31160;49.500;7.772;2023-07-13T07:25:18;23.10;90.10
13794;DHT22;31160;49.500;7.772;2023-07-13T07:27:45;23.30;90.60
13794;DHT22;31160;49.500;7.772;2023-07-13T07:30:15;24.00;88.60
13794;DHT22;31160;49.500;7.772;2023-07-13T07:32:44;24.30;88.10
13794;DHT22;31160;49.500;7.772;2023-07-13T07:35:14;24.60;87.80
13794;DHT22;31160;49.500;7.772;2023-07-13T07:37:41;24.50;87.40
13794;DHT22;31160;49.500;7.772;2023-07-13T07:40:11;24.70;87.20
13794;DHT22;31160;49.500;7.772;2023-07-13T07:42:40;24.40;87.60
13794;DHT22;31160;49.500;7.772;2023-07-13T07:45:07;24.50;86.80
13794;DHT22;31160;49.500;7.772;2023-07-13T07:47:34;24.40;89.20
13794;DHT22;31160;49.500;7.772;2023-07-13T07:50:01;24.40;88.10
13794;DHT22;31160;49.500;7.772;2023-07-13T07:52:27;24.40;87.50
13794;DHT22;31160;49.500;7.772;2023-07-13T07:54:54;24.40;87.80
13794;DHT22;31160;49.500;7.772;2023-07-13T07:57:24;24.50;86.10
13794;DHT22;31160;49.500;7.772;2023-07-13T07:59:53;24.30;87.00
13794;DHT22;31160;49.500;7.772;2023-07-13T08:02:24;24.40;88.60
13794;DHT22;31160;49.500;7.772;2023-07-13T08:04:54;24.40;85.40
13794;DHT22;31160;49.500;7.772;2023-07-13T08:07:24;24.50;86.90
13794;DHT22;31160;49.500;7.772;2023-07-13T08:09:54;24.40;87.50
13794;DHT22;31160;49.500;7.772;2023-07-13T08:12:21;24.40;86.00
13794;DHT22;31160;49.500;7.772;2023-07-13T08:14:51;24.50;84.80
13794;DHT22;31160;49.500;7.772;2023-07-13T08:17:24;24.50;85.40
13794;DHT22;31160;49.500;7.772;2023-07-13T08:19:51;24.40;84.80
13794;DHT22;31160;49.500;7.772;2023-07-13T08:22:18;24.40;85.60
13794;DHT22;31160;49.500;7.772;2023-07-13T08:24:45;24.60;85.20
13794;DHT22;31160;49.500;7.772;2023-07-13T08:27:13;24.30;84.80
13794;DHT22;31160;49.500;7.772;2023-07-13T08:29:40;24.20;84.30
13794;DHT22;31160;49.500;7.772;2023-07-13T08:32:07;24.10;85.50
13794;DHT22;31160;49.500;7.772;2023-07-13T08:34:37;24.10;86.20
13794;DHT22;31160;49.500;7.772;2023-07-13T08:37:04;24.30;84.50
13794;DHT22;31160;49.500;7.772;2023-07-13T08:39:32;24.20;85.10
13794;DHT22;31160;49.500;7.772;2023-07-13T08:42:06;24.40;85.20
13794;DHT22;31160;49.500;7.772;2023-07-13T08:44:48;24.60;85.50
13794;DHT22;31160;49.500;7.772;2023-07-13T08:47:18;24.80;84.90
13794;DHT22;31160;49.500;7.772;2023-07-13T08:49:47;25.00;85.10
13794;DHT22;31160;49.500;7.772;2023-07-13T08:52:33;25.10;83.90
13794;DHT22;31160;49.500;7.772;2023-07-13T08:55:12;25.10;83.70
13794;DHT22;31160;49.500;7.772;2023-07-13T08:57:41;25.10;84.20
13794;DHT22;31160;49.500;7.772;2023-07-13T09:00:13;24.70;83.00
13794;DHT22;31160;49.500;7.772;2023-07-13T09:03:01;24.70;84.10
13794;DHT22;31160;49.500;7.772;2023-07-13T09:05:40;24.70;83.70
13794;DHT22;31160;49.500;7.772;2023-07-13T09:11:01;24.70;84.40
13794;DHT22;31160;49.500;7.772;2023-07-13T09:13:43;24.80;83.20
13794;DHT22;31160;49.500;7.772;2023-07-13T09:16:12;24.80;83.10
13794;DHT22;31160;49.500;7.772;2023-07-13T09:18:43;24.80;82.50
13794;DHT22;31160;49.500;7.772;2023-07-13T09:23:48;25.40;82.00
13794;DHT22;31160;49.500;7.772;2023-07-13T09:26:23;25.40;81.50
13794;DHT22;31160;49.500;7.772;2023-07-13T09:29:10;25.30;79.70
13794;DHT22;31160;49.500;7.772;2023-07-13T09:31:43;25.20;80.20
13794;DHT22;31160;49.500;7.772;2023-07-13T09:34:13;25.40;81.00
13794;DHT22;31160;49.500;7.772;2023-07-13T09:36:39;25.70;79.50
13794;DHT22;31160;49.500;7.772;2023-07-13T09:39:37;25.80;76.60
13794;DHT22;31160;49.500;7.772;2023-07-13T09:44:58;25.80;76.60
13794;DHT22;31160;49.500;7.772;2023-07-13T09:47:27;25.90;76.70
13794;DHT22;31160;49.500;7.772;2023-07-13T09:49:58;25.90;76.70
13794;DHT22;31160;49.500;7.772;2023-07-13T09:52:44;25.80;76.70
13794;DHT22;31160;49.500;7.772;2023-07-13T09:55:33;25.60;76.50
13794;DHT22;31160;49.500;7.772;2023-07-13T09:58:16;25.50;77.20
13794;DHT22;31160;49.500;7.772;2023-07-13T10:00:53;25.30;78.10
13794;DHT22;31160;49.500;7.772;2023-07-13T10:03:23;25.40;78.20
13794;DHT22;31160;49.500;7.772;2023-07-13T10:05:52;25.30;78.40
13794;DHT22;31160;49.500;7.772;2023-07-13T10:08:23;25.40;79.60
13794;DHT22;31160;49.500;7.772;2023-07-13T10:10:57;25.40;80.90
13794;DHT22;31160;49.500;7.772;2023-07-13T10:13:47;25.30;78.60
13794;DHT22;31160;49.500;7.772;2023-07-13T10:16:15;25.20;78.50
13794;DHT22;31160;49.500;7.772;2023-07-13T10:18:58;25.10;78.60
13794;DHT22;31160;49.500;7.772;2023-07-13T10:21:32;25.10;74.70
13794;DHT22;31160;49.500;7.772;2023-07-13T10:29:59;25.70;76.80
13794;DHT22;31160;49.500;7.772;2023-07-13T10:32:27;25.70;74.20
13794;DHT22;31160;49.500;7.772;2023-07-13T10:34:54;25.40;74.50
13794;DHT22;31160;49.500;7.772;2023-07-13T10:37:26;25.40;75.20
13794;DHT22;31160;49.500;7.772;2023-07-13T10:39:56;25.70;75.00
13794;DHT22;31160;49.500;7.772;2023-07-13T10:42:36;26.00;74.70
13794;DHT22;31160;49.500;7.772;2023-07-13T10:45:19;26.20;74.20
13794;DHT22;31160;49.500;7.772;2023-07-13T10:47:48;26.20;74.20
13794;DHT22;31160;49.500;7.772;2023-07-13T10:50:24;26.50;74.10
13794;DHT22;31160;49.500;7.772;2023-07-13T10:52:54;26.60;73.70
13794;DHT22;31160;49.500;7.772;2023-07-13T10:55:41;26.50;72.60
13794;DHT22;31160;49.500;7.772;2023-07-13T10:58:32;26.50;73.20
13794;DHT22;31160;49.500;7.772;2023-07-13T11:01:14;26.30;73.50
13794;DHT22;31160;49.500;7.772;2023-07-13T11:03:58;26.70;71.80
13794;DHT22;31160;49.500;7.772;2023-07-13T11:06:39;26.70;71.80
13794;DHT22;31160;49.500;7.772;2023-07-13T11:11:46;26.40;72.60
13794;DHT22;31160;49.500;7.772;2023-07-13T11:14:29;26.20;72.80
13794;DHT22;31160;49.500;7.772;2023-07-13T11:16:57;26.10;72.30
13794;DHT22;31160;49.500;7.772;2023-07-13T11:19:26;25.90;73.90
13794;DHT22;31160;49.500;7.772;2023-07-13T11:22:11;26.20;73.50
13794;DHT22;31160;49.500;7.772;2023-07-13T11:25:06;26.50;72.80
13794;DHT22;31160;49.500;7.772;2023-07-13T11:27:51;26.60;73.50
13794;DHT22;31160;49.500;7.772;2023-07-13T11:33:17;26.10;72.00
13794;DHT22;31160;49.500;7.772;2023-07-13T11:35:50;25.80;72.70
13794;DHT22;31160;49.500;7.772;2023-07-13T11:38:28;26.10;73.40
13794;DHT22;31160;49.500;7.772;2023-07-13T11:40:59;26.50;73.00
13794;DHT22;31160;49.500;7.772;2023-07-13T11:43:29;26.30;72.40
13794;DHT22;31160;49.500;7.772;2023-07-13T11:45:56;26.20;71.70
13794;DHT22;31160;49.500;7.772;2023-07-13T11:48:29;26.00;73.70
13794;DHT22;31160;49.500;7.772;2023-07-13T11:51:02;26.00;71.70
13794;DHT22;31160;49.500;7.772;2023-07-13T11:53:39;25.60;72.60
13794;DHT22;31160;49.500;7.772;2023-07-13T11:56:07;25.60;73.90
13794;DHT22;31160;49.500;7.772;2023-07-13T11:58:34;25.70;73.90
13794;DHT22;31160;49.500;7.772;2023-07-13T12:01:02;25.80;73.10
13794;DHT22;31160;49.500;7.772;2023-07-13T12:03:33;25.90;73.00
13794;DHT22;31160;49.500;7.772;2023-07-13T12:06:06;25.90;73.00
13794;DHT22;31160;49.500;7.772;2023-07-13T12:08:45;25.80;74.20
13794;DHT22;31160;49.500;7.772;2023-07-13T12:11:16;26.10;73.90
13794;DHT22;31160;49.500;7.772;2023-07-13T12:13:45;26.20;72.70
13794;DHT22;31160;49.500;7.772;2023-07-13T12:16:16;26.10;72.10
13794;DHT22;31160;49.500;7.772;2023-07-13T12:18:44;26.10;70.50
13794;DHT22;31160;49.500;7.772;2023-07-13T12:21:17;26.40;71.10
13794;DHT22;31160;49.500;7.772;2023-07-13T12:23:48;26.70;71.50
13794;DHT22;31160;49.500;7.772;2023-07-13T12:26:17;26.50;71.40
13794;DHT22;31160;49.500;7.772;2023-07-13T12:28:49;26.20;69.80
13794;DHT22;31160;49.500;7.772;2023-07-13T12:31:37;26.20;69.80
13794;DHT22;31160;49.500;7.772;2023-07-13T12:34:14;26.00;71.60
13794;DHT22;31160;49.500;7.772;2023-07-13T12:36:58;26.00;70.90
13794;DHT22;31160;49.500;7.772;2023-07-13T12:39:32;26.20;70.40
13794;DHT22;31160;49.500;7.772;2023-07-13T12:42:19;26.50;69.60
13794;DHT22;31160;49.500;7.772;2023-07-13T12:44:48;26.90;68.60
13794;DHT22;31160;49.500;7.772;2023-07-13T12:47:15;26.90;69.80
13794;DHT22;31160;49.500;7.772;2023-07-13T12:49:53;26.90;68.40
13794;DHT22;31160;49.500;7.772;2023-07-13T12:52:31;26.70;67.90
13794;DHT22;31160;49.500;7.772;2023-07-13T12:55:27;26.20;68.90
13794;DHT22;31160;49.500;7.772;2023-07-13T12:57:57;26.40;68.10
13794;DHT22;31160;49.500;7.772;2023-07-13T13:00:32;26.20;68.60
13794;DHT22;31160;49.500;7.772;2023-07-13T13:03:05;26.00;67.20
13794;DHT22;31160;49.500;7.772;2023-07-13T13:05:59;26.40;68.10
13794;DHT22;31160;49.500;7.772;2023-07-13T13:08:26;26.60;67.80
13794;DHT22;31160;49.500;7.772;2023-07-13T13:10:53;26.90;67.70
13794;DHT22;31160;49.500;7.772;2023-07-13T13:13:20;27.30;67.40
13794;DHT22;31160;49.500;7.772;2023-07-13T13:15:47;27.50;66.90
13794;DHT22;31160;49.500;7.772;2023-07-13T13:18:19;27.30;67.50
13794;DHT22;31160;49.500;7.772;2023-07-13T13:20:47;27.20;67.40
13794;DHT22;31160;49.500;7.772;2023-07-13T13:23:16;27.00;67.60
13794;DHT22;31160;49.500;7.772;2023-07-13T13:25:46;27.20;68.30
13794;DHT22;31160;49.500;7.772;2023-07-13T13:28:18;27.50;66.70
13794;DHT22;31160;49.500;7.772;2023-07-13T13:30:47;27.50;67.00
13794;DHT22;31160;49.500;7.772;2023-07-13T13:33:16;27.40;66.60
13794;DHT22;31160;49.500;7.772;2023-07-13T13:35:44;27.50;64.20
13794;DHT22;31160;49.500;7.772;2023-07-13T13:38:12;27.10;65.20
13794;DHT22;31160;49.500;7.772;2023-07-13T13:40:44;27.10;64.40
13794;DHT22;31160;49.500;7.772;2023-07-13T13:43:18;26.90;65.90
13794;DHT22;31160;49.500;7.772;2023-07-13T13:45:46;27.00;65.70
13794;DHT22;31160;49.500;7.772;2023-07-13T13:48:17;27.40;65.50
13794;DHT22;31160;49.500;7.772;2023-07-13T13:50:45;27.60;66.40
13794;DHT22;31160;49.500;7.772;2023-07-13T13:53:13;27.40;65.30
13794;DHT22;31160;49.500;7.772;2023-07-13T13:55:40;27.10;66.60
13794;DHT22;31160;49.500;7.772;2023-07-13T13:58:09;27.20;67.10
13794;DHT22;31160;49.500;7.772;2023-07-13T14:00:37;27.20;65.40
13794;DHT22;31160;49.500;7.772;2023-07-13T14:03:17;27.00;65.20
13794;DHT22;31160;49.500;7.772;2023-07-13T14:05:45;26.80;65.90
13794;DHT22;31160;49.500;7.772;2023-07-13T14:08:18;26.50;65.80
13794;DHT22;31160;49.500;7.772;2023-07-13T14:10:49;26.50;66.60
13794;DHT22;31160;49.500;7.772;2023-07-13T14:13:23;26.70;66.40
13794;DHT22;31160;49.500;7.772;2023-07-13T14:15:53;26.70;66.40
13794;DHT22;31160;49.500;7.772;2023-07-13T14:18:20;26.70;66.20
13794;DHT22;31160;49.500;7.772;2023-07-13T14:20:48;26.70;66.60
13794;DHT22;31160;49.500;7.772;2023-07-13T14:23:16;26.70;66.80
13794;DHT22;31160;49.500;7.772;2023-07-13T14:25:47;26.90;65.80
13794;DHT22;31160;49.500;7.772;2023-07-13T14:28:21;26.60;67.60
13794;DHT22;31160;49.500;7.772;2023-07-13T14:30:49;26.70;66.90
13794;DHT22;31160;49.500;7.772;2023-07-13T14:33:16;26.80;67.40
13794;DHT22;31160;49.500;7.772;2023-07-13T14:35:43;26.80;67.40
13794;DHT22;31160;49.500;7.772;2023-07-13T14:38:18;26.70;66.70
13794;DHT22;31160;49.500;7.772;2023-07-13T14:40:45;26.40;67.20
13794;DHT22;31160;49.500;7.772;2023-07-13T14:43:15;26.20;67.90
13794;DHT22;31160;49.500;7.772;2023-07-13T14:45:44;26.10;68.40
13794;DHT22;31160;49.500;7.772;2023-07-13T14:50:44;25.90;68.30
13794;DHT22;31160;49.500;7.772;2023-07-13T14:53:11;26.30;68.60
13794;DHT22;31160;49.500;7.772;2023-07-13T14:55:39;26.40;68.40
13794;DHT22;31160;49.500;7.772;2023-07-13T14:58:06;26.20;66.70
13794;DHT22;31160;49.500;7.772;2023-07-13T15:00:33;26.10;67.70
13794;DHT22;31160;49.500;7.772;2023-07-13T15:03:00;26.20;68.70
13794;DHT22;31160;49.500;7.772;2023-07-13T15:05:30;26.20;67.00
13794;DHT22;31160;49.500;7.772;2023-07-13T15:08:00;26.60;67.00
13794;DHT22;31160;49.500;7.772;2023-07-13T15:10:29;26.70;66.50
13794;DHT22;31160;49.500;7.772;2023-07-13T15:13:18;26.60;66.70
13794;DHT22;31160;49.500;7.772;2023-07-13T15:15:50;26.60;66.70
13794;DHT22;31160;49.500;7.772;2023-07-13T15:18:20;26.70;65.80
13794;DHT22;31160;49.500;7.772;2023-07-13T15:20:48;26.50;66.00
13794;DHT22;31160;49.500;7.772;2023-07-13T15:23:17;26.10;67.40
13794;DHT22;31160;49.500;7.772;2023-07-13T15:25:44;25.70;68.00
13794;DHT22;31160;49.500;7.772;2023-07-13T15:28:12;25.60;68.00
13794;DHT22;31160;49.500;7.772;2023-07-13T15:30:43;25.40;68.10
13794;DHT22;31160;49.500;7.772;2023-07-13T15:33:27;25.40;68.80
13794;DHT22;31160;49.500;7.772;2023-07-13T15:35:55;25.50;68.50
13794;DHT22;31160;49.500;7.772;2023-07-13T15:38:25;25.50;67.50
13794;DHT22;31160;49.500;7.772;2023-07-13T15:40:52;25.40;68.70
13794;DHT22;31160;49.500;7.772;2023-07-13T15:43:20;25.50;68.70
13794;DHT22;31160;49.500;7.772;2023-07-13T15:45:47;25.70;67.70
13794;DHT22;31160;49.500;7.772;2023-07-13T15:48:17;25.60;68.60
13794;DHT22;31160;49.500;7.772;2023-07-13T15:50:53;25.70;67.40
13794;DHT22;31160;49.500;7.772;2023-07-13T15:53:23;25.70;67.30
13794;DHT22;31160;49.500;7.772;2023-07-13T15:55:51;25.60;66.10
13794;DHT22;31160;49.500;7.772;2023-07-13T15:58:18;25.40;67.40
13794;DHT22;31160;49.500;7.772;2023-07-13T16:00:46;25.00;67.20
13794;DHT22;31160;49.500;7.772;2023-07-13T16:03:18;25.00;68.50
13794;DHT22;31160;49.500;7.772;2023-07-13T16:05:45;25.10;68.10
13794;DHT22;31160;49.500;7.772;2023-07-13T16:08:27;25.30;67.60
13794;DHT22;31160;49.500;7.772;2023-07-13T16:10:54;25.40;68.80
13794;DHT22;31160;49.500;7.772;2023-07-13T16:13:21;25.40;66.90